Aeroporto :
LOGIN :

Iscrizione | Disclaimer

   EN    FR    IT 

 










Sommario :    VFR   VFR Marginale   IFR   IFR Intensivo   IFR Molto Intensivo
Visibilità : 
Base nubi : 
>= 8 km
>= 3000ft
5 / 8 km
1000 / 3000 ft
1500m / 5 km
500 / 1000 ft
800 / 1500m
200 / 500 ft
< 800m
< 200 ft
Simboli :   Temporali  Nebbia  Neve Forte  Precipitazioni Forti  Vento > 20 kt
SIGMETs :   Varie  Temporali  Ghiacco  Turbolenza  Onda orograficha  Ceneri Vulcaniche






- Altitudine del aeroporto : 53 ft
- Codice IATA : LBC


EDHL - Lübeck

ULTIMO METAR :
  • 200050Z AUTO 02008KT 9999 // BKN082/// 04/02 Q1010

METARs OBSOLETI :
  • 200020Z AUTO 01007KT 9999 // FEW035/// 04/02 Q1010
  • 192350Z AUTO 36008KT 9999 // SCT071/// 04/02 Q1009
  • 192320Z AUTO 01009KT 340V040 9999 // SCT014/// BKN073/// OVC094/// 05/03 Q1009
  • 192250Z AUTO 01010KT 330V040 9999 // FEW014/// SCT019/// OVC031/// 05/03 Q1008
  • 192220Z AUTO 01011KT 340V040 9999 // BKN014/// BKN022/// OVC046/// 05/03 Q1008
  • 192150Z AUTO 02010KT 350V060 9999 // FEW008/// SCT010/// OVC014/// 05/04 Q1007
  • 192120Z AUTO 02012KT 350V050 8000 // OVC009/// 05/04 Q1006
  • 192050Z AUTO 02013KT 350V050 6000 // SCT008/// BKN010/// OVC015/// 05/04 Q1006
  • 192020Z AUTO 03013KT 350V050 9999 // BKN008/// BKN011/// OVC017/// 06/04 Q1005

Previsioni scadute.



MetMap, La meteo Aeronautica in un colpo d'occhio ! - Copyright ORBIFLY Dicembre 2007 - Disclaimer

ORBIFLY MET'MAP TEAM :

Programmazione e sviluppo : Alexandra Zaïnal
Concezione : Baudouin d'Aumeries
Supporto tecnico e logistico : Manuel Goepfert
Aiuto : Marc-Olivier Méhu
Aiuto per la traduzione : Arnaldo La Scala




FONTI E CREDITI :

   NOAA